sensor_id;sensor_type;location;lat;lon;timestamp;temperature;humidity
11132;DHT22;5620;53.570;9.718;2022-12-20T00:01:18;8.10;1.00
11132;DHT22;5620;53.570;9.718;2022-12-20T00:03:45;8.30;99.90
11132;DHT22;5620;53.570;9.718;2022-12-20T00:06:14;8.20;99.90
11132;DHT22;5620;53.570;9.718;2022-12-20T00:08:40;8.20;99.90
11132;DHT22;5620;53.570;9.718;2022-12-20T00:11:08;8.30;99.90
11132;DHT22;5620;53.570;9.718;2022-12-20T00:13:35;8.30;70.50
11132;DHT22;5620;53.570;9.718;2022-12-20T00:16:21;8.40;1.00
11132;DHT22;5620;53.570;9.718;2022-12-20T00:18:53;8.40;1.00
11132;DHT22;5620;53.570;9.718;2022-12-20T00:21:22;8.40;1.00
11132;DHT22;5620;53.570;9.718;2022-12-20T00:23:48;8.30;1.00
11132;DHT22;5620;53.570;9.718;2022-12-20T00:26:17;8.30;1.00
11132;DHT22;5620;53.570;9.718;2022-12-20T00:28:43;8.20;1.00
11132;DHT22;5620;53.570;9.718;2022-12-20T00:31:13;8.30;1.00
11132;DHT22;5620;53.570;9.718;2022-12-20T00:33:45;8.30;1.00
11132;DHT22;5620;53.570;9.718;2022-12-20T00:36:14;8.40;1.00
11132;DHT22;5620;53.570;9.718;2022-12-20T00:38:46;8.50;1.00
11132;DHT22;5620;53.570;9.718;2022-12-20T00:41:15;8.50;99.90
11132;DHT22;5620;53.570;9.718;2022-12-20T00:43:42;8.50;99.90
11132;DHT22;5620;53.570;9.718;2022-12-20T00:46:10;8.40;99.90
11132;DHT22;5620;53.570;9.718;2022-12-20T00:48:37;8.50;99.90
11132;DHT22;5620;53.570;9.718;2022-12-20T00:51:06;8.50;99.90
11132;DHT22;5620;53.570;9.718;2022-12-20T00:53:36;8.40;99.90
11132;DHT22;5620;53.570;9.718;2022-12-20T00:56:03;8.40;99.90
11132;DHT22;5620;53.570;9.718;2022-12-20T00:58:34;8.40;99.90
11132;DHT22;5620;53.570;9.718;2022-12-20T01:01:02;8.40;99.90
11132;DHT22;5620;53.570;9.718;2022-12-20T01:03:28;8.40;99.90
11132;DHT22;5620;53.570;9.718;2022-12-20T01:05:59;8.40;99.90
11132;DHT22;5620;53.570;9.718;2022-12-20T01:08:28;8.40;99.90
11132;DHT22;5620;53.570;9.718;2022-12-20T01:11:31;8.50;99.90
11132;DHT22;5620;53.570;9.718;2022-12-20T01:14:01;8.50;99.90
11132;DHT22;5620;53.570;9.718;2022-12-20T01:16:38;8.50;99.90
11132;DHT22;5620;53.570;9.718;2022-12-20T01:19:07;8.60;99.90
11132;DHT22;5620;53.570;9.718;2022-12-20T01:21:32;8.70;99.90
11132;DHT22;5620;53.570;9.718;2022-12-20T01:23:59;8.80;99.90
11132;DHT22;5620;53.570;9.718;2022-12-20T01:26:27;8.90;99.90
11132;DHT22;5620;53.570;9.718;2022-12-20T01:28:55;8.90;99.90
11132;DHT22;5620;53.570;9.718;2022-12-20T01:31:21;9.00;99.90
11132;DHT22;5620;53.570;9.718;2022-12-20T01:33:48;9.00;99.90
11132;DHT22;5620;53.570;9.718;2022-12-20T01:36:21;9.10;99.90
11132;DHT22;5620;53.570;9.718;2022-12-20T01:38:48;9.20;92.30
11132;DHT22;5620;53.570;9.718;2022-12-20T01:41:20;9.20;38.00
11132;DHT22;5620;53.570;9.718;2022-12-20T01:43:57;9.20;1.00
11132;DHT22;5620;53.570;9.718;2022-12-20T01:46:29;9.30;1.00
11132;DHT22;5620;53.570;9.718;2022-12-20T01:51:57;9.40;1.00
11132;DHT22;5620;53.570;9.718;2022-12-20T01:54:33;9.40;1.00
11132;DHT22;5620;53.570;9.718;2022-12-20T01:57:24;9.40;1.00
11132;DHT22;5620;53.570;9.718;2022-12-20T01:59:53;9.40;1.00
11132;DHT22;5620;53.570;9.718;2022-12-20T02:02:19;9.40;1.00
11132;DHT22;5620;53.570;9.718;2022-12-20T02:04:45;9.40;1.00
11132;DHT22;5620;53.570;9.718;2022-12-20T02:07:23;9.50;1.00
11132;DHT22;5620;53.570;9.718;2022-12-20T02:09:51;9.50;1.00
11132;DHT22;5620;53.570;9.718;2022-12-20T02:12:24;9.50;1.00
11132;DHT22;5620;53.570;9.718;2022-12-20T02:15:20;9.50;1.00
11132;DHT22;5620;53.570;9.718;2022-12-20T02:33:06;9.60;99.90
11132;DHT22;5620;53.570;9.718;2022-12-20T02:35:35;9.60;99.90
11132;DHT22;5620;53.570;9.718;2022-12-20T02:41:05;9.70;99.90
11132;DHT22;5620;53.570;9.718;2022-12-20T02:43:32;9.70;99.90
11132;DHT22;5620;53.570;9.718;2022-12-20T02:46:01;9.60;99.90
11132;DHT22;5620;53.570;9.718;2022-12-20T02:48:36;9.60;99.90
11132;DHT22;5620;53.570;9.718;2022-12-20T02:51:04;9.70;99.90
11132;DHT22;5620;53.570;9.718;2022-12-20T02:53:32;9.70;99.90
11132;DHT22;5620;53.570;9.718;2022-12-20T02:58:52;9.70;99.90
11132;DHT22;5620;53.570;9.718;2022-12-20T03:01:28;9.80;99.90
11132;DHT22;5620;53.570;9.718;2022-12-20T03:03:57;9.80;99.90
11132;DHT22;5620;53.570;9.718;2022-12-20T03:06:24;9.80;99.90
11132;DHT22;5620;53.570;9.718;2022-12-20T03:08:51;9.80;99.90
11132;DHT22;5620;53.570;9.718;2022-12-20T03:11:18;9.80;99.90
11132;DHT22;5620;53.570;9.718;2022-12-20T03:13:44;9.80;99.90
11132;DHT22;5620;53.570;9.718;2022-12-20T03:16:11;9.90;99.90
11132;DHT22;5620;53.570;9.718;2022-12-20T03:18:37;9.80;99.90
11132;DHT22;5620;53.570;9.718;2022-12-20T03:21:04;9.80;99.90
11132;DHT22;5620;53.570;9.718;2022-12-20T03:23:29;9.90;99.90
11132;DHT22;5620;53.570;9.718;2022-12-20T03:25:55;9.90;99.90
11132;DHT22;5620;53.570;9.718;2022-12-20T03:28:20;9.90;99.90
11132;DHT22;5620;53.570;9.718;2022-12-20T03:30:52;9.90;99.90
11132;DHT22;5620;53.570;9.718;2022-12-20T03:33:20;9.90;99.90
11132;DHT22;5620;53.570;9.718;2022-12-20T03:35:47;10.00;99.90
11132;DHT22;5620;53.570;9.718;2022-12-20T03:38:14;10.00;99.90
11132;DHT22;5620;53.570;9.718;2022-12-20T03:40:41;10.00;99.90
11132;DHT22;5620;53.570;9.718;2022-12-20T03:43:06;10.00;99.90
11132;DHT22;5620;53.570;9.718;2022-12-20T03:45:32;10.00;99.90
11132;DHT22;5620;53.570;9.718;2022-12-20T03:48:00;10.00;99.90
11132;DHT22;5620;53.570;9.718;2022-12-20T03:50:37;10.10;99.90
11132;DHT22;5620;53.570;9.718;2022-12-20T03:53:03;10.10;99.90
11132;DHT22;5620;53.570;9.718;2022-12-20T03:55:29;10.10;99.90
11132;DHT22;5620;53.570;9.718;2022-12-20T03:57:56;10.20;99.90
11132;DHT22;5620;53.570;9.718;2022-12-20T04:00:23;10.10;99.90
11132;DHT22;5620;53.570;9.718;2022-12-20T04:02:49;10.10;99.90
11132;DHT22;5620;53.570;9.718;2022-12-20T04:05:14;10.10;99.90
11132;DHT22;5620;53.570;9.718;2022-12-20T04:07:40;10.10;99.90
11132;DHT22;5620;53.570;9.718;2022-12-20T04:10:06;10.10;99.90
11132;DHT22;5620;53.570;9.718;2022-12-20T04:12:32;10.00;99.90
11132;DHT22;5620;53.570;9.718;2022-12-20T04:14:57;10.00;99.90
11132;DHT22;5620;53.570;9.718;2022-12-20T04:17:23;9.90;99.90
11132;DHT22;5620;53.570;9.718;2022-12-20T04:19:48;10.00;99.90
11132;DHT22;5620;53.570;9.718;2022-12-20T04:22:15;9.90;99.90
11132;DHT22;5620;53.570;9.718;2022-12-20T04:24:41;9.90;99.90
11132;DHT22;5620;53.570;9.718;2022-12-20T04:27:07;9.90;99.90
11132;DHT22;5620;53.570;9.718;2022-12-20T04:29:33;9.90;99.90
11132;DHT22;5620;53.570;9.718;2022-12-20T04:32:02;9.90;99.90
11132;DHT22;5620;53.570;9.718;2022-12-20T04:34:31;10.00;99.90
11132;DHT22;5620;53.570;9.718;2022-12-20T04:37:00;10.00;99.90
11132;DHT22;5620;53.570;9.718;2022-12-20T04:39:25;10.00;99.90
11132;DHT22;5620;53.570;9.718;2022-12-20T04:41:54;10.00;99.90
11132;DHT22;5620;53.570;9.718;2022-12-20T04:44:20;10.00;99.90
11132;DHT22;5620;53.570;9.718;2022-12-20T04:46:47;10.00;99.90
11132;DHT22;5620;53.570;9.718;2022-12-20T04:49:15;10.00;99.90
11132;DHT22;5620;53.570;9.718;2022-12-20T04:51:42;10.00;99.90
11132;DHT22;5620;53.570;9.718;2022-12-20T04:54:08;9.90;99.90
11132;DHT22;5620;53.570;9.718;2022-12-20T04:56:33;9.80;99.90
11132;DHT22;5620;53.570;9.718;2022-12-20T04:59:03;9.70;99.90
11132;DHT22;5620;53.570;9.718;2022-12-20T05:01:30;9.70;99.90
11132;DHT22;5620;53.570;9.718;2022-12-20T05:03:59;9.60;99.90
11132;DHT22;5620;53.570;9.718;2022-12-20T05:06:24;9.50;99.90
11132;DHT22;5620;53.570;9.718;2022-12-20T05:08:50;9.40;99.90
11132;DHT22;5620;53.570;9.718;2022-12-20T05:11:16;9.40;1.00
11132;DHT22;5620;53.570;9.718;2022-12-20T05:13:44;9.40;1.00
11132;DHT22;5620;53.570;9.718;2022-12-20T05:16:09;9.30;1.00
11132;DHT22;5620;53.570;9.718;2022-12-20T05:18:36;9.40;1.00
11132;DHT22;5620;53.570;9.718;2022-12-20T05:21:05;9.40;1.00
11132;DHT22;5620;53.570;9.718;2022-12-20T05:23:31;9.40;1.00
11132;DHT22;5620;53.570;9.718;2022-12-20T05:25:57;9.40;1.00
11132;DHT22;5620;53.570;9.718;2022-12-20T05:28:24;9.40;1.00
11132;DHT22;5620;53.570;9.718;2022-12-20T05:30:50;9.30;1.00
11132;DHT22;5620;53.570;9.718;2022-12-20T05:33:16;9.30;25.60
11132;DHT22;5620;53.570;9.718;2022-12-20T05:35:43;9.30;79.80
11132;DHT22;5620;53.570;9.718;2022-12-20T05:38:10;9.40;99.90
11132;DHT22;5620;53.570;9.718;2022-12-20T05:40:38;9.40;99.90
11132;DHT22;5620;53.570;9.718;2022-12-20T05:43:06;9.40;99.90
11132;DHT22;5620;53.570;9.718;2022-12-20T05:45:32;9.30;99.90
11132;DHT22;5620;53.570;9.718;2022-12-20T05:47:59;9.40;99.90
11132;DHT22;5620;53.570;9.718;2022-12-20T05:50:26;9.40;99.90
11132;DHT22;5620;53.570;9.718;2022-12-20T05:52:52;9.40;99.90
11132;DHT22;5620;53.570;9.718;2022-12-20T05:55:18;9.40;99.90
11132;DHT22;5620;53.570;9.718;2022-12-20T05:57:45;9.50;1.00
11132;DHT22;5620;53.570;9.718;2022-12-20T06:00:12;9.50;1.00
11132;DHT22;5620;53.570;9.718;2022-12-20T06:02:38;9.50;1.00
11132;DHT22;5620;53.570;9.718;2022-12-20T06:05:05;9.50;1.00
11132;DHT22;5620;53.570;9.718;2022-12-20T06:07:30;9.50;1.00
11132;DHT22;5620;53.570;9.718;2022-12-20T06:09:58;9.50;1.00
11132;DHT22;5620;53.570;9.718;2022-12-20T06:12:24;9.50;1.00
11132;DHT22;5620;53.570;9.718;2022-12-20T06:14:49;9.50;1.00
11132;DHT22;5620;53.570;9.718;2022-12-20T06:17:15;9.50;1.00
11132;DHT22;5620;53.570;9.718;2022-12-20T06:19:41;9.50;1.00
11132;DHT22;5620;53.570;9.718;2022-12-20T06:22:09;9.50;1.00
11132;DHT22;5620;53.570;9.718;2022-12-20T06:24:37;9.60;1.00
11132;DHT22;5620;53.570;9.718;2022-12-20T06:27:02;9.50;93.30
11132;DHT22;5620;53.570;9.718;2022-12-20T06:29:28;9.60;99.90
11132;DHT22;5620;53.570;9.718;2022-12-20T06:31:56;9.70;99.90
11132;DHT22;5620;53.570;9.718;2022-12-20T06:34:23;9.80;99.90
11132;DHT22;5620;53.570;9.718;2022-12-20T06:36:49;9.80;99.90
11132;DHT22;5620;53.570;9.718;2022-12-20T06:39:16;9.90;99.90
11132;DHT22;5620;53.570;9.718;2022-12-20T06:41:44;9.90;99.90
11132;DHT22;5620;53.570;9.718;2022-12-20T06:44:10;9.90;99.90
11132;DHT22;5620;53.570;9.718;2022-12-20T06:46:39;9.90;99.90
11132;DHT22;5620;53.570;9.718;2022-12-20T06:49:05;10.00;99.90
11132;DHT22;5620;53.570;9.718;2022-12-20T06:51:36;10.00;99.90
11132;DHT22;5620;53.570;9.718;2022-12-20T06:54:01;10.00;99.90
11132;DHT22;5620;53.570;9.718;2022-12-20T06:56:27;10.10;99.90
11132;DHT22;5620;53.570;9.718;2022-12-20T06:58:54;10.10;99.90
11132;DHT22;5620;53.570;9.718;2022-12-20T07:01:20;10.10;99.90
11132;DHT22;5620;53.570;9.718;2022-12-20T07:03:45;10.10;99.90
11132;DHT22;5620;53.570;9.718;2022-12-20T07:06:12;10.10;99.90
11132;DHT22;5620;53.570;9.718;2022-12-20T07:08:39;10.10;99.90
11132;DHT22;5620;53.570;9.718;2022-12-20T07:11:06;10.20;99.90
11132;DHT22;5620;53.570;9.718;2022-12-20T07:13:33;10.20;99.90
11132;DHT22;5620;53.570;9.718;2022-12-20T07:16:01;10.20;99.90
11132;DHT22;5620;53.570;9.718;2022-12-20T07:18:28;10.20;99.90
11132;DHT22;5620;53.570;9.718;2022-12-20T07:20:59;10.20;99.90
11132;DHT22;5620;53.570;9.718;2022-12-20T07:23:26;10.20;99.90
11132;DHT22;5620;53.570;9.718;2022-12-20T07:25:56;10.10;99.90
11132;DHT22;5620;53.570;9.718;2022-12-20T07:28:23;10.10;1.00
11132;DHT22;5620;53.570;9.718;2022-12-20T07:30:51;10.10;1.00
11132;DHT22;5620;53.570;9.718;2022-12-20T07:33:16;10.10;1.00
11132;DHT22;5620;53.570;9.718;2022-12-20T07:35:44;10.10;1.00
11132;DHT22;5620;53.570;9.718;2022-12-20T07:38:12;10.10;1.00
11132;DHT22;5620;53.570;9.718;2022-12-20T07:40:41;10.00;1.00
11132;DHT22;5620;53.570;9.718;2022-12-20T07:43:10;10.00;1.00
11132;DHT22;5620;53.570;9.718;2022-12-20T07:45:36;10.00;1.00
11132;DHT22;5620;53.570;9.718;2022-12-20T07:48:03;10.10;1.00
11132;DHT22;5620;53.570;9.718;2022-12-20T07:50:32;10.10;1.00
11132;DHT22;5620;53.570;9.718;2022-12-20T07:53:00;10.10;18.00
11132;DHT22;5620;53.570;9.718;2022-12-20T07:55:29;10.10;1.00
11132;DHT22;5620;53.570;9.718;2022-12-20T07:58:02;10.10;1.00
11132;DHT22;5620;53.570;9.718;2022-12-20T08:00:29;10.00;49.90
11132;DHT22;5620;53.570;9.718;2022-12-20T08:03:10;10.10;94.80
11132;DHT22;5620;53.570;9.718;2022-12-20T08:05:41;10.10;99.90
11132;DHT22;5620;53.570;9.718;2022-12-20T08:08:09;10.20;99.90
11132;DHT22;5620;53.570;9.718;2022-12-20T08:10:36;10.20;95.30
11132;DHT22;5620;53.570;9.718;2022-12-20T08:13:04;10.20;78.70
11132;DHT22;5620;53.570;9.718;2022-12-20T08:15:39;10.30;94.60
11132;DHT22;5620;53.570;9.718;2022-12-20T08:18:06;10.40;34.10
11132;DHT22;5620;53.570;9.718;2022-12-20T08:20:33;10.40;1.00
11132;DHT22;5620;53.570;9.718;2022-12-20T08:23:02;10.50;1.00
11132;DHT22;5620;53.570;9.718;2022-12-20T08:25:29;10.50;1.00
11132;DHT22;5620;53.570;9.718;2022-12-20T08:27:54;10.50;1.00
11132;DHT22;5620;53.570;9.718;2022-12-20T08:30:21;10.60;1.00
11132;DHT22;5620;53.570;9.718;2022-12-20T08:32:48;10.70;1.00
11132;DHT22;5620;53.570;9.718;2022-12-20T08:35:14;10.60;1.00
11132;DHT22;5620;53.570;9.718;2022-12-20T08:37:40;10.70;1.00
11132;DHT22;5620;53.570;9.718;2022-12-20T08:40:08;10.80;99.90
11132;DHT22;5620;53.570;9.718;2022-12-20T08:42:34;10.80;99.90
11132;DHT22;5620;53.570;9.718;2022-12-20T08:45:01;10.90;99.90
11132;DHT22;5620;53.570;9.718;2022-12-20T08:47:28;10.90;99.90
11132;DHT22;5620;53.570;9.718;2022-12-20T08:49:56;10.90;99.90
11132;DHT22;5620;53.570;9.718;2022-12-20T08:52:23;11.00;99.90
11132;DHT22;5620;53.570;9.718;2022-12-20T08:54:48;11.00;57.00
11132;DHT22;5620;53.570;9.718;2022-12-20T08:57:16;11.10;1.00
11132;DHT22;5620;53.570;9.718;2022-12-20T08:59:41;11.10;1.00
11132;DHT22;5620;53.570;9.718;2022-12-20T09:02:08;11.10;1.00
11132;DHT22;5620;53.570;9.718;2022-12-20T09:04:35;11.20;1.00
11132;DHT22;5620;53.570;9.718;2022-12-20T09:07:02;11.30;1.00
11132;DHT22;5620;53.570;9.718;2022-12-20T09:09:29;11.40;99.90
11132;DHT22;5620;53.570;9.718;2022-12-20T09:11:55;11.60;99.90
11132;DHT22;5620;53.570;9.718;2022-12-20T09:14:20;11.70;99.90
11132;DHT22;5620;53.570;9.718;2022-12-20T09:16:47;11.80;99.90
11132;DHT22;5620;53.570;9.718;2022-12-20T09:19:14;11.90;1.00
11132;DHT22;5620;53.570;9.718;2022-12-20T09:21:41;11.90;1.00
11132;DHT22;5620;53.570;9.718;2022-12-20T09:24:10;11.90;1.00
11132;DHT22;5620;53.570;9.718;2022-12-20T09:26:36;11.90;99.90
11132;DHT22;5620;53.570;9.718;2022-12-20T09:29:03;12.00;99.90
11132;DHT22;5620;53.570;9.718;2022-12-20T09:31:29;12.00;99.90
11132;DHT22;5620;53.570;9.718;2022-12-20T09:33:59;11.90;99.90
11132;DHT22;5620;53.570;9.718;2022-12-20T09:36:27;11.80;99.90
11132;DHT22;5620;53.570;9.718;2022-12-20T09:38:56;11.80;99.90
11132;DHT22;5620;53.570;9.718;2022-12-20T09:41:37;11.70;82.90
11132;DHT22;5620;53.570;9.718;2022-12-20T09:44:16;11.60;58.30
11132;DHT22;5620;53.570;9.718;2022-12-20T09:47:13;11.60;92.80
11132;DHT22;5620;53.570;9.718;2022-12-20T09:49:43;11.60;99.90
11132;DHT22;5620;53.570;9.718;2022-12-20T09:55:27;11.50;98.30
11132;DHT22;5620;53.570;9.718;2022-12-20T10:01:09;11.30;99.90
11132;DHT22;5620;53.570;9.718;2022-12-20T10:03:31;11.30;99.90
11132;DHT22;5620;53.570;9.718;2022-12-20T10:05:59;11.40;99.90
11132;DHT22;5620;53.570;9.718;2022-12-20T10:09:12;11.50;99.90
11132;DHT22;5620;53.570;9.718;2022-12-20T10:12:17;11.70;1.00
11132;DHT22;5620;53.570;9.718;2022-12-20T10:15:18;12.20;1.00
11132;DHT22;5620;53.570;9.718;2022-12-20T10:26:33;12.60;99.90
11132;DHT22;5620;53.570;9.718;2022-12-20T10:29:01;12.80;99.90
11132;DHT22;5620;53.570;9.718;2022-12-20T10:31:27;13.10;99.90
11132;DHT22;5620;53.570;9.718;2022-12-20T10:33:54;13.50;99.90
11132;DHT22;5620;53.570;9.718;2022-12-20T10:36:31;13.80;93.80
11132;DHT22;5620;53.570;9.718;2022-12-20T10:38:59;14.10;1.00
11132;DHT22;5620;53.570;9.718;2022-12-20T10:41:49;14.20;1.00
11132;DHT22;5620;53.570;9.718;2022-12-20T10:44:27;14.30;1.00
11132;DHT22;5620;53.570;9.718;2022-12-20T10:46:55;14.10;99.90
11132;DHT22;5620;53.570;9.718;2022-12-20T10:49:33;13.90;99.90
11132;DHT22;5620;53.570;9.718;2022-12-20T10:52:17;13.70;99.90
11132;DHT22;5620;53.570;9.718;2022-12-20T10:54:44;13.70;99.90
11132;DHT22;5620;53.570;9.718;2022-12-20T10:57:21;13.70;99.90
11132;DHT22;5620;53.570;9.718;2022-12-20T11:00:05;13.90;99.90
11132;DHT22;5620;53.570;9.718;2022-12-20T11:02:35;14.00;99.90
11132;DHT22;5620;53.570;9.718;2022-12-20T11:08:08;13.80;99.90
11132;DHT22;5620;53.570;9.718;2022-12-20T11:10:36;13.70;99.90
11132;DHT22;5620;53.570;9.718;2022-12-20T11:13:03;13.70;99.90
11132;DHT22;5620;53.570;9.718;2022-12-20T11:15:37;13.80;99.90
11132;DHT22;5620;53.570;9.718;2022-12-20T11:23:21;13.40;99.90
11132;DHT22;5620;53.570;9.718;2022-12-20T11:37:35;13.10;99.90
11132;DHT22;5620;53.570;9.718;2022-12-20T11:40:24;13.00;99.90
11132;DHT22;5620;53.570;9.718;2022-12-20T11:51:21;13.30;92.00
11132;DHT22;5620;53.570;9.718;2022-12-20T11:54:48;13.30;74.00
11132;DHT22;5620;53.570;9.718;2022-12-20T11:57:28;13.20;62.70
11132;DHT22;5620;53.570;9.718;2022-12-20T11:59:59;13.00;37.40
11132;DHT22;5620;53.570;9.718;2022-12-20T12:02:50;12.80;31.20
11132;DHT22;5620;53.570;9.718;2022-12-20T12:05:25;12.60;30.80
11132;DHT22;5620;53.570;9.718;2022-12-20T12:08:00;12.50;56.40
11132;DHT22;5620;53.570;9.718;2022-12-20T12:10:35;12.40;42.10
11132;DHT22;5620;53.570;9.718;2022-12-20T12:13:14;12.40;41.90
11132;DHT22;5620;53.570;9.718;2022-12-20T12:18:52;12.00;47.90
11132;DHT22;5620;53.570;9.718;2022-12-20T12:21:36;11.70;63.80
11132;DHT22;5620;53.570;9.718;2022-12-20T12:24:23;11.50;93.30
11132;DHT22;5620;53.570;9.718;2022-12-20T12:26:57;11.40;99.90
11132;DHT22;5620;53.570;9.718;2022-12-20T12:29:28;11.30;99.90
11132;DHT22;5620;53.570;9.718;2022-12-20T12:32:00;11.20;99.90
11132;DHT22;5620;53.570;9.718;2022-12-20T12:43:44;10.90;99.90
11132;DHT22;5620;53.570;9.718;2022-12-20T12:46:35;10.90;1.00
11132;DHT22;5620;53.570;9.718;2022-12-20T12:49:03;11.00;1.00
11132;DHT22;5620;53.570;9.718;2022-12-20T12:51:35;11.00;1.00
11132;DHT22;5620;53.570;9.718;2022-12-20T12:54:14;11.10;1.00
11132;DHT22;5620;53.570;9.718;2022-12-20T12:56:45;11.00;1.00
11132;DHT22;5620;53.570;9.718;2022-12-20T13:02:26;11.00;1.00
11132;DHT22;5620;53.570;9.718;2022-12-20T13:07:48;11.10;89.20
11132;DHT22;5620;53.570;9.718;2022-12-20T13:12:58;11.00;71.20
11132;DHT22;5620;53.570;9.718;2022-12-20T13:18:19;10.90;99.90
11132;DHT22;5620;53.570;9.718;2022-12-20T13:26:55;10.80;99.90
11132;DHT22;5620;53.570;9.718;2022-12-20T13:29:26;10.80;99.90
11132;DHT22;5620;53.570;9.718;2022-12-20T13:31:52;10.80;1.00
11132;DHT22;5620;53.570;9.718;2022-12-20T13:34:57;10.80;1.00
11132;DHT22;5620;53.570;9.718;2022-12-20T13:37:52;10.70;1.00
11132;DHT22;5620;53.570;9.718;2022-12-20T13:45:47;10.50;1.00
11132;DHT22;5620;53.570;9.718;2022-12-20T13:48:17;10.40;55.10
11132;DHT22;5620;53.570;9.718;2022-12-20T13:50:53;10.30;99.90
11132;DHT22;5620;53.570;9.718;2022-12-20T13:53:24;10.20;1.00
11132;DHT22;5620;53.570;9.718;2022-12-20T13:55:51;10.20;1.00
11132;DHT22;5620;53.570;9.718;2022-12-20T14:00:49;10.20;1.00
11132;DHT22;5620;53.570;9.718;2022-12-20T14:03:33;10.10;99.90
11132;DHT22;5620;53.570;9.718;2022-12-20T14:06:09;10.10;99.90
11132;DHT22;5620;53.570;9.718;2022-12-20T14:08:42;10.20;99.90
11132;DHT22;5620;53.570;9.718;2022-12-20T14:11:22;10.00;1.00
11132;DHT22;5620;53.570;9.718;2022-12-20T14:13:53;10.00;1.00
11132;DHT22;5620;53.570;9.718;2022-12-20T14:16:21;10.00;1.00
11132;DHT22;5620;53.570;9.718;2022-12-20T14:18:49;10.00;1.00
11132;DHT22;5620;53.570;9.718;2022-12-20T14:21:15;10.00;99.90
11132;DHT22;5620;53.570;9.718;2022-12-20T14:23:47;10.00;99.90
11132;DHT22;5620;53.570;9.718;2022-12-20T14:26:24;10.00;99.90
11132;DHT22;5620;53.570;9.718;2022-12-20T14:28:52;10.00;99.90
11132;DHT22;5620;53.570;9.718;2022-12-20T14:31:36;10.00;99.90
11132;DHT22;5620;53.570;9.718;2022-12-20T14:34:15;10.00;99.90
11132;DHT22;5620;53.570;9.718;2022-12-20T14:36:46;10.00;1.00
11132;DHT22;5620;53.570;9.718;2022-12-20T14:39:52;10.00;1.00
11132;DHT22;5620;53.570;9.718;2022-12-20T14:42:19;10.00;1.00
11132;DHT22;5620;53.570;9.718;2022-12-20T14:44:46;10.00;1.00
11132;DHT22;5620;53.570;9.718;2022-12-20T14:47:25;10.00;1.00
11132;DHT22;5620;53.570;9.718;2022-12-20T14:49:56;10.00;99.90
11132;DHT22;5620;53.570;9.718;2022-12-20T14:52:43;10.00;99.90
11132;DHT22;5620;53.570;9.718;2022-12-20T14:55:22;10.00;99.90
11132;DHT22;5620;53.570;9.718;2022-12-20T14:57:53;10.00;99.90
11132;DHT22;5620;53.570;9.718;2022-12-20T15:00:27;10.00;99.90
11132;DHT22;5620;53.570;9.718;2022-12-20T15:13:40;10.00;15.50
11132;DHT22;5620;53.570;9.718;2022-12-20T15:16:21;10.10;99.90
11132;DHT22;5620;53.570;9.718;2022-12-20T15:18:58;10.20;5.10
11132;DHT22;5620;53.570;9.718;2022-12-20T15:21:41;10.20;25.50
11132;DHT22;5620;53.570;9.718;2022-12-20T15:24:12;10.20;1.00
11132;DHT22;5620;53.570;9.718;2022-12-20T15:26:41;10.20;99.90
11132;DHT22;5620;53.570;9.718;2022-12-20T15:32:06;10.20;99.90
11132;DHT22;5620;53.570;9.718;2022-12-20T15:34:36;10.10;99.90
11132;DHT22;5620;53.570;9.718;2022-12-20T15:37:02;10.10;99.90
11132;DHT22;5620;53.570;9.718;2022-12-20T15:39:28;10.10;99.90
11132;DHT22;5620;53.570;9.718;2022-12-20T15:41:57;10.10;1.00
11132;DHT22;5620;53.570;9.718;2022-12-20T15:44:27;10.10;1.00
11132;DHT22;5620;53.570;9.718;2022-12-20T15:46:57;10.10;1.00
11132;DHT22;5620;53.570;9.718;2022-12-20T15:49:28;10.10;1.00
11132;DHT22;5620;53.570;9.718;2022-12-20T15:51:56;10.20;1.00
11132;DHT22;5620;53.570;9.718;2022-12-20T15:57:12;10.10;1.00
11132;DHT22;5620;53.570;9.718;2022-12-20T15:59:40;10.10;92.40
11132;DHT22;5620;53.570;9.718;2022-12-20T16:02:20;10.10;99.90
11132;DHT22;5620;53.570;9.718;2022-12-20T16:04:48;10.10;99.90
11132;DHT22;5620;53.570;9.718;2022-12-20T16:07:16;10.10;99.90
11132;DHT22;5620;53.570;9.718;2022-12-20T16:09:45;10.20;99.90
11132;DHT22;5620;53.570;9.718;2022-12-20T16:12:13;10.20;99.90
11132;DHT22;5620;53.570;9.718;2022-12-20T16:14:40;10.20;99.90
11132;DHT22;5620;53.570;9.718;2022-12-20T16:17:16;10.10;99.90
11132;DHT22;5620;53.570;9.718;2022-12-20T16:19:42;10.10;99.90
11132;DHT22;5620;53.570;9.718;2022-12-20T16:22:21;10.10;99.90
11132;DHT22;5620;53.570;9.718;2022-12-20T16:24:47;10.10;1.00
11132;DHT22;5620;53.570;9.718;2022-12-20T16:27:13;10.10;1.00
11132;DHT22;5620;53.570;9.718;2022-12-20T16:29:39;10.10;1.00
11132;DHT22;5620;53.570;9.718;2022-12-20T16:32:24;10.10;1.00
11132;DHT22;5620;53.570;9.718;2022-12-20T16:34:53;10.10;1.00
11132;DHT22;5620;53.570;9.718;2022-12-20T16:37:21;10.10;11.40
11132;DHT22;5620;53.570;9.718;2022-12-20T16:39:47;10.10;69.40
11132;DHT22;5620;53.570;9.718;2022-12-20T16:42:17;10.10;99.90
11132;DHT22;5620;53.570;9.718;2022-12-20T16:44:49;10.20;99.90
11132;DHT22;5620;53.570;9.718;2022-12-20T16:47:14;10.20;99.90
11132;DHT22;5620;53.570;9.718;2022-12-20T16:49:41;10.20;99.90
11132;DHT22;5620;53.570;9.718;2022-12-20T16:52:14;10.10;99.90
11132;DHT22;5620;53.570;9.718;2022-12-20T16:54:41;10.20;1.00
11132;DHT22;5620;53.570;9.718;2022-12-20T16:57:11;10.20;99.90
11132;DHT22;5620;53.570;9.718;2022-12-20T16:59:38;10.20;1.00
11132;DHT22;5620;53.570;9.718;2022-12-20T17:02:28;10.20;1.00
11132;DHT22;5620;53.570;9.718;2022-12-20T17:04:55;10.20;1.00
11132;DHT22;5620;53.570;9.718;2022-12-20T17:07:22;10.20;1.00
11132;DHT22;5620;53.570;9.718;2022-12-20T17:09:48;10.20;1.00
11132;DHT22;5620;53.570;9.718;2022-12-20T17:12:20;10.20;99.90
11132;DHT22;5620;53.570;9.718;2022-12-20T17:14:46;10.20;99.90
11132;DHT22;5620;53.570;9.718;2022-12-20T17:17:12;10.30;99.90
11132;DHT22;5620;53.570;9.718;2022-12-20T17:19:39;10.30;99.90
11132;DHT22;5620;53.570;9.718;2022-12-20T17:22:06;10.30;1.00
11132;DHT22;5620;53.570;9.718;2022-12-20T17:24:33;10.40;99.90
11132;DHT22;5620;53.570;9.718;2022-12-20T17:26:59;10.40;1.00
11132;DHT22;5620;53.570;9.718;2022-12-20T17:29:27;10.40;99.90
11132;DHT22;5620;53.570;9.718;2022-12-20T17:31:54;10.40;99.90
11132;DHT22;5620;53.570;9.718;2022-12-20T17:34:28;10.40;99.90
11132;DHT22;5620;53.570;9.718;2022-12-20T17:36:56;10.40;89.60
11132;DHT22;5620;53.570;9.718;2022-12-20T17:39:24;10.50;1.00
11132;DHT22;5620;53.570;9.718;2022-12-20T17:41:51;10.50;21.80
11132;DHT22;5620;53.570;9.718;2022-12-20T17:44:21;10.60;1.00
11132;DHT22;5620;53.570;9.718;2022-12-20T17:46:50;10.70;1.00
11132;DHT22;5620;53.570;9.718;2022-12-20T17:49:18;10.70;1.00
11132;DHT22;5620;53.570;9.718;2022-12-20T17:51:44;10.80;1.00
11132;DHT22;5620;53.570;9.718;2022-12-20T17:54:20;10.80;99.90
11132;DHT22;5620;53.570;9.718;2022-12-20T17:56:48;10.80;99.90
11132;DHT22;5620;53.570;9.718;2022-12-20T17:59:17;10.90;99.90
11132;DHT22;5620;53.570;9.718;2022-12-20T18:01:43;10.90;99.90
11132;DHT22;5620;53.570;9.718;2022-12-20T18:04:12;11.00;92.20
11132;DHT22;5620;53.570;9.718;2022-12-20T18:06:41;11.00;1.00
11132;DHT22;5620;53.570;9.718;2022-12-20T18:09:17;11.00;1.00
11132;DHT22;5620;53.570;9.718;2022-12-20T18:11:43;11.00;1.00
11132;DHT22;5620;53.570;9.718;2022-12-20T18:14:10;11.10;1.00
11132;DHT22;5620;53.570;9.718;2022-12-20T18:16:36;11.10;99.90
11132;DHT22;5620;53.570;9.718;2022-12-20T18:19:04;11.10;99.90